createdAt,value
2022-09-11T00:05:02.301Z,80.93
2022-09-11T00:15:11.077Z,80.96
2022-09-11T00:25:16.858Z,81.11
2022-09-11T00:35:24.446Z,81.33
2022-09-11T00:45:32.400Z,81.24
2022-09-11T00:55:43.467Z,81.26
2022-09-11T01:05:52.921Z,81.24
2022-09-11T01:16:04.074Z,81.58
2022-09-11T01:26:18.499Z,81.59
2022-09-11T01:36:27.438Z,81.49
2022-09-11T01:46:41.285Z,81.73
2022-09-11T01:56:54.040Z,81.71
2022-09-11T02:07:07.577Z,81.89
2022-09-11T02:17:13.029Z,82.03
2022-09-11T02:27:22.572Z,81.97
2022-09-11T02:37:34.330Z,82.00
2022-09-11T02:47:43.090Z,82.06
2022-09-11T02:57:48.888Z,82.26
2022-09-11T03:07:55.333Z,82.49
2022-09-11T03:18:02.340Z,82.46
2022-09-11T03:28:10.223Z,82.71
2022-09-11T03:38:17.929Z,82.68
2022-09-11T03:48:24.544Z,82.90
2022-09-11T03:58:31.743Z,82.92
2022-09-11T04:08:41.419Z,82.80
2022-09-11T04:18:49.289Z,82.91
2022-09-11T04:28:57.384Z,83.06
2022-09-11T04:39:05.017Z,83.08
2022-09-11T04:49:11.241Z,83.37
2022-09-11T04:59:22.311Z,83.34
2022-09-11T05:09:29.824Z,83.26
2022-09-11T05:19:36.950Z,83.40
2022-09-11T05:29:44.290Z,83.66
2022-09-11T05:39:52.376Z,83.58
2022-09-11T05:49:59.655Z,83.79
2022-09-11T06:00:08.351Z,83.67
2022-09-11T06:10:15.814Z,83.76
2022-09-11T06:20:23.694Z,83.82
2022-09-11T06:30:30.953Z,83.91
2022-09-11T06:40:38.073Z,83.62
2022-09-11T06:50:45.674Z,83.64
2022-09-11T07:00:53.115Z,83.52
2022-09-11T07:11:02.893Z,83.53
2022-09-11T07:21:06.853Z,83.56
2022-09-11T07:31:20.705Z,83.75
2022-09-11T07:41:31.356Z,83.72
2022-09-11T07:51:40.573Z,83.70
2022-09-11T08:01:47.865Z,83.67
2022-09-11T08:11:58.826Z,83.60
2022-09-11T08:22:06.389Z,83.75
2022-09-11T08:32:13.766Z,83.66
2022-09-11T08:42:21.107Z,83.89
2022-09-11T08:52:29.096Z,83.97
2022-09-11T09:02:48.470Z,84.10
2022-09-11T09:13:02.903Z,84.26
2022-09-11T09:23:08.203Z,84.25
2022-09-11T09:33:20.588Z,84.31
2022-09-11T09:43:34.195Z,84.51
2022-09-11T09:53:41.245Z,84.59
2022-09-11T10:04:09.018Z,84.43
2022-09-11T10:14:49.399Z,84.37
2022-09-11T10:24:53.472Z,84.05
2022-09-11T10:35:00.782Z,83.84
2022-09-11T10:45:08.016Z,83.72
2022-09-11T10:55:19.027Z,83.53
2022-09-11T11:05:28.150Z,83.37
2022-09-11T11:15:39.185Z,82.92
2022-09-11T11:25:50.769Z,82.67
2022-09-11T11:35:58.262Z,82.01
2022-09-11T11:46:13.113Z,81.96
2022-09-11T11:56:19.331Z,81.35
2022-09-11T12:06:27.288Z,80.92
2022-09-11T12:16:34.992Z,80.50
2022-09-11T12:26:43.129Z,80.62
2022-09-11T12:36:51.910Z,80.75
2022-09-11T12:47:16.648Z,81.08
2022-09-11T12:57:21.689Z,81.24
2022-09-11T13:07:33.045Z,81.66
2022-09-11T13:17:42.560Z,81.69
2022-09-11T13:27:51.126Z,81.95
2022-09-11T13:38:00.610Z,82.08
2022-09-11T13:48:13.656Z,82.10
2022-09-11T13:58:23.017Z,82.27
2022-09-11T14:08:29.416Z,82.10
2022-09-11T14:18:42.360Z,81.80
2022-09-11T14:29:22.029Z,81.70
2022-09-11T14:39:27.992Z,81.50
2022-09-11T14:49:35.164Z,80.96
2022-09-11T14:59:42.462Z,80.87
2022-09-11T15:09:50.828Z,81.05
2022-09-11T15:20:00.615Z,80.86
2022-09-11T15:30:09.680Z,80.94
2022-09-11T15:40:17.858Z,80.98
2022-09-11T15:50:29.054Z,80.79
2022-09-11T16:00:36.564Z,80.65
2022-09-11T16:10:44.206Z,80.71
2022-09-11T16:20:57.580Z,80.74
2022-09-11T16:31:06.405Z,80.91
2022-09-11T16:41:16.817Z,80.93
2022-09-11T16:51:24.687Z,81.13
2022-09-11T17:01:32.307Z,81.07
2022-09-11T17:11:39.579Z,81.16
2022-09-11T17:21:46.080Z,81.38
2022-09-11T17:32:10.640Z,81.18
2022-09-11T17:42:19.362Z,81.34
2022-09-11T17:52:27.042Z,81.32
2022-09-11T18:02:34.933Z,81.50
2022-09-11T18:12:42.474Z,81.50
2022-09-11T18:22:50.420Z,81.48
2022-09-11T18:32:57.530Z,81.68
2022-09-11T18:43:06.568Z,81.82
2022-09-11T18:53:15.052Z,81.86
2022-09-11T19:03:22.838Z,81.87
2022-09-11T19:13:31.151Z,81.98
2022-09-11T19:23:40.884Z,82.05
2022-09-11T19:33:49.095Z,82.05
2022-09-11T19:44:00.343Z,82.15
2022-09-11T19:54:05.348Z,82.29
2022-09-11T20:04:13.749Z,82.47
2022-09-11T20:14:21.094Z,82.50
2022-09-11T20:24:28.717Z,82.54
2022-09-11T20:34:36.165Z,82.76
2022-09-11T20:44:45.610Z,82.89
2022-09-11T20:54:51.255Z,82.97
2022-09-11T21:05:00.533Z,83.09
2022-09-11T21:15:10.432Z,83.26
2022-09-11T21:25:17.558Z,83.38
2022-09-11T21:35:24.867Z,83.51
2022-09-11T21:45:32.828Z,83.63
2022-09-11T21:55:38.208Z,83.72
2022-09-11T22:05:49.220Z,83.78
2022-09-11T22:15:56.471Z,83.88
2022-09-11T22:26:07.631Z,84.03
2022-09-11T22:36:17.716Z,84.12
2022-09-11T22:46:26.916Z,84.12
2022-09-11T22:56:34.624Z,84.17
2022-09-11T23:06:59.479Z,84.17
2022-09-11T23:17:07.205Z,84.26
2022-09-11T23:27:14.659Z,84.35
2022-09-11T23:37:22.927Z,84.34
2022-09-11T23:47:28.901Z,84.47
2022-09-11T23:57:36.339Z,84.37
